createdAt,value
2023-04-07T00:01:24.488Z,101585.94
2023-04-07T00:03:48.226Z,101583.25
2023-04-07T00:06:12.053Z,101583.28
2023-04-07T00:08:37.119Z,101579.00
2023-04-07T00:11:01.037Z,101581.56
2023-04-07T00:13:24.656Z,101586.91
2023-04-07T00:15:48.411Z,101589.94
2023-04-07T00:18:12.073Z,101581.06
2023-04-07T00:20:35.810Z,101580.31
2023-04-07T00:22:59.506Z,101580.47
2023-04-07T00:25:24.614Z,101576.91
2023-04-07T00:27:48.265Z,101574.34
2023-04-07T00:30:12.664Z,101579.88
2023-04-07T00:32:36.656Z,101573.66
2023-04-07T00:35:02.241Z,101576.66
2023-04-07T00:37:26.625Z,101573.94
2023-04-07T00:39:51.527Z,101577.66
2023-04-07T00:42:17.182Z,101576.59
2023-04-07T00:44:40.940Z,101571.53
2023-04-07T00:47:05.316Z,101575.22
2023-04-07T00:49:29.542Z,101567.25
2023-04-07T00:51:53.149Z,101575.31
2023-04-07T00:54:17.370Z,101564.00
2023-04-07T00:56:43.197Z,101571.94
2023-04-07T00:59:08.957Z,101564.09
2023-04-07T01:01:39.118Z,101562.56
2023-04-07T01:04:09.986Z,101563.25
2023-04-07T01:06:42.226Z,101559.41
2023-04-07T01:09:09.548Z,101556.16
2023-04-07T01:11:41.940Z,101555.88
2023-04-07T01:14:11.363Z,101561.34
2023-04-07T01:16:44.901Z,101549.06
2023-04-07T01:19:18.160Z,101549.13
2023-04-07T01:21:54.414Z,101542.16
2023-04-07T01:24:40.963Z,101541.56
2023-04-07T01:27:22.838Z,101541.56
2023-04-07T01:29:50.604Z,101543.41
2023-04-07T01:32:15.002Z,101537.28
2023-04-07T01:34:39.961Z,101542.63
2023-04-07T01:37:04.498Z,101537.47
2023-04-07T01:39:29.443Z,101534.84
2023-04-07T01:41:54.617Z,101537.53
2023-04-07T01:44:19.153Z,101539.41
2023-04-07T01:46:44.243Z,101535.88
2023-04-07T01:49:08.884Z,101535.13
2023-04-07T01:51:33.447Z,101536.00
2023-04-07T01:53:57.707Z,101532.47
2023-04-07T01:56:21.524Z,101533.44
2023-04-07T01:58:48.595Z,101544.94
2023-04-07T02:01:15.872Z,101539.78
2023-04-07T02:04:01.896Z,101539.97
2023-04-07T02:06:34.345Z,101530.84
2023-04-07T02:09:04.573Z,101544.28
2023-04-07T02:11:28.897Z,101530.94
2023-04-07T02:13:58.182Z,101527.38
2023-04-07T02:16:24.674Z,101528.41
2023-04-07T02:18:50.872Z,101525.06
2023-04-07T02:21:16.585Z,101519.06
2023-04-07T02:23:42.357Z,101524.94
2023-04-07T02:26:06.785Z,101517.97
2023-04-07T02:28:30.609Z,101520.69
2023-04-07T02:30:54.301Z,101515.38
2023-04-07T02:33:18.011Z,101514.56
2023-04-07T02:35:43.142Z,101515.44
2023-04-07T02:38:06.778Z,101513.00
2023-04-07T02:40:32.696Z,101517.19
2023-04-07T02:42:56.329Z,101515.66
2023-04-07T02:45:20.037Z,101512.22
2023-04-07T02:47:43.825Z,101514.19
2023-04-07T02:50:09.099Z,101511.06
2023-04-07T02:52:34.406Z,101513.16
2023-04-07T02:55:01.154Z,101516.00
2023-04-07T02:57:25.452Z,101509.88
2023-04-07T02:59:52.251Z,101515.03
2023-04-07T03:02:16.115Z,101511.28
2023-04-07T03:04:40.071Z,101511.34
2023-04-07T03:07:03.861Z,101518.44
2023-04-07T03:09:30.793Z,101510.69
2023-04-07T03:11:54.461Z,101511.53
2023-04-07T03:14:18.216Z,101516.56
2023-04-07T03:16:44.667Z,101508.75
2023-04-07T03:19:10.947Z,101512.22
2023-04-07T03:21:40.224Z,101509.88
2023-04-07T03:24:04.050Z,101498.16
2023-04-07T03:26:29.149Z,101501.78
2023-04-07T03:28:53.709Z,101505.47
2023-04-07T03:31:17.914Z,101505.47
2023-04-07T03:33:42.353Z,101492.19
2023-04-07T03:36:06.935Z,101495.59
2023-04-07T03:38:30.958Z,101494.63
2023-04-07T03:40:58.165Z,101486.75
2023-04-07T03:43:23.245Z,101492.09
2023-04-07T03:45:47.229Z,101494.78
2023-04-07T03:48:12.399Z,101493.38
2023-04-07T03:50:45.346Z,101493.84
2023-04-07T03:53:14.005Z,101492.91
2023-04-07T03:55:38.557Z,101492.94
2023-04-07T03:58:09.912Z,101491.03
2023-04-07T04:00:36.192Z,101491.69
2023-04-07T04:03:04.655Z,101493.34
2023-04-07T04:05:30.072Z,101490.50
2023-04-07T04:07:54.062Z,101493.09
2023-04-07T04:10:19.591Z,101493.97
2023-04-07T04:12:47.309Z,101491.50
2023-04-07T04:15:12.178Z,101489.69
2023-04-07T04:17:38.067Z,101496.44
2023-04-07T04:20:02.533Z,101501.75
2023-04-07T04:22:37.901Z,101490.25
2023-04-07T04:25:01.843Z,101493.44
2023-04-07T04:27:25.695Z,101494.41
2023-04-07T04:29:56.412Z,101496.88
2023-04-07T04:32:31.101Z,101499.78
2023-04-07T04:34:56.482Z,101499.88
2023-04-07T04:37:21.556Z,101493.38
2023-04-07T04:39:45.400Z,101494.84
2023-04-07T04:42:10.943Z,101493.69
2023-04-07T04:44:34.632Z,101497.88
2023-04-07T04:47:00.263Z,101499.59
2023-04-07T04:49:24.330Z,101496.81
2023-04-07T04:51:50.337Z,101502.13
2023-04-07T04:54:14.371Z,101501.44
2023-04-07T04:56:38.218Z,101501.38
2023-04-07T04:59:02.738Z,101503.84
2023-04-07T05:01:48.977Z,101501.81
2023-04-07T05:04:14.315Z,101503.78
2023-04-07T05:06:44.043Z,101506.31
2023-04-07T05:09:11.444Z,101500.84
2023-04-07T05:11:42.766Z,101510.59
2023-04-07T05:14:06.607Z,101506.50
2023-04-07T05:16:30.415Z,101511.81
2023-04-07T05:18:54.603Z,101512.75
2023-04-07T05:21:20.215Z,101518.72
2023-04-07T05:23:44.339Z,101517.34
2023-04-07T05:26:09.825Z,101503.09
2023-04-07T05:28:33.733Z,101509.09
2023-04-07T05:31:02.465Z,101513.72
2023-04-07T05:33:29.079Z,101507.13
2023-04-07T05:35:53.276Z,101512.41
2023-04-07T05:38:17.238Z,101508.19
2023-04-07T05:40:42.496Z,101505.25
2023-04-07T05:43:10.776Z,101507.84
2023-04-07T05:45:34.650Z,101505.38
2023-04-07T05:47:58.666Z,101504.97
2023-04-07T05:50:29.204Z,101511.31
2023-04-07T05:52:55.711Z,101516.19
2023-04-07T05:55:22.891Z,101517.22
2023-04-07T05:57:47.663Z,101500.84
2023-04-07T06:00:16.396Z,101508.81
2023-04-07T06:02:44.644Z,101510.41
2023-04-07T06:05:13.985Z,101513.13
2023-04-07T06:07:37.830Z,101510.50
2023-04-07T06:10:01.669Z,101516.22
2023-04-07T06:12:25.657Z,101510.66
2023-04-07T06:14:54.409Z,101515.28
2023-04-07T06:17:20.744Z,101510.53
2023-04-07T06:19:44.822Z,101519.63
2023-04-07T06:22:08.575Z,101514.78
2023-04-07T06:24:33.969Z,101519.28
2023-04-07T06:26:59.046Z,101520.16
2023-04-07T06:29:22.778Z,101531.00
2023-04-07T06:31:46.629Z,101529.16
2023-04-07T06:34:11.840Z,101519.56
2023-04-07T06:36:35.806Z,101520.91
2023-04-07T06:38:59.743Z,101516.47
2023-04-07T06:41:23.736Z,101521.38
2023-04-07T06:43:51.364Z,101531.25
2023-04-07T06:46:15.145Z,101529.38
2023-04-07T06:48:38.760Z,101519.81
2023-04-07T06:51:03.915Z,101525.03
2023-04-07T06:53:27.573Z,101523.59
2023-04-07T06:55:51.233Z,101521.69
2023-04-07T06:58:14.867Z,101523.97
2023-04-07T07:00:38.575Z,101523.09
2023-04-07T07:03:02.812Z,101525.19
2023-04-07T07:05:27.313Z,101524.03
2023-04-07T07:07:52.614Z,101530.81
2023-04-07T07:10:16.377Z,101533.50
2023-04-07T07:12:40.060Z,101523.84
2023-04-07T07:15:04.286Z,101531.03
2023-04-07T07:17:27.938Z,101528.72
2023-04-07T07:19:51.608Z,101533.63
2023-04-07T07:22:15.216Z,101537.38
2023-04-07T07:24:40.408Z,101526.63
2023-04-07T07:27:04.067Z,101530.31
2023-04-07T07:29:27.731Z,101533.75
2023-04-07T07:31:51.378Z,101535.34
2023-04-07T07:34:15.068Z,101533.78
2023-04-07T07:36:38.715Z,101538.31
2023-04-07T07:39:02.442Z,101541.69
2023-04-07T07:41:27.850Z,101544.44
2023-04-07T07:43:51.974Z,101542.94
2023-04-07T07:46:15.675Z,101541.31
2023-04-07T07:48:39.389Z,101547.53
2023-04-07T07:51:03.172Z,101549.44
2023-04-07T07:53:26.972Z,101547.72
2023-04-07T07:55:50.762Z,101551.06
2023-04-07T07:58:15.952Z,101553.31
2023-04-07T08:00:39.607Z,101551.19
2023-04-07T08:03:03.440Z,101549.25
2023-04-07T08:05:27.358Z,101554.16
2023-04-07T08:07:53.326Z,101548.13
2023-04-07T08:10:17.792Z,101550.03
2023-04-07T08:12:41.598Z,101549.91
2023-04-07T08:15:09.828Z,101547.13
2023-04-07T08:17:33.658Z,101548.53
2023-04-07T08:19:57.254Z,101547.38
2023-04-07T08:22:21.258Z,101559.69
2023-04-07T08:24:44.863Z,101558.88
2023-04-07T08:27:08.592Z,101562.91
2023-04-07T08:29:32.411Z,101561.72
2023-04-07T08:31:57.720Z,101559.97
2023-04-07T08:34:21.497Z,101560.84
2023-04-07T08:36:45.205Z,101558.78
2023-04-07T08:39:08.924Z,101562.56
2023-04-07T08:41:39.459Z,101557.22
2023-04-07T08:44:03.764Z,101563.44
2023-04-07T08:46:27.544Z,101558.16
2023-04-07T08:48:54.269Z,101561.97
2023-04-07T08:51:23.811Z,101564.63
2023-04-07T08:53:51.527Z,101558.78
2023-04-07T08:56:16.025Z,101559.38
2023-04-07T08:58:39.716Z,101565.03
2023-04-07T09:01:06.135Z,101559.06
2023-04-07T09:03:32.638Z,101573.34
2023-04-07T09:05:58.624Z,101563.31
2023-04-07T09:08:22.229Z,101573.25
2023-04-07T09:10:45.975Z,101582.31
2023-04-07T09:13:09.829Z,101581.41
2023-04-07T09:15:34.015Z,101582.16
2023-04-07T09:17:58.717Z,101583.56
2023-04-07T09:20:22.711Z,101577.63
2023-04-07T09:22:48.101Z,101576.84
2023-04-07T09:25:15.019Z,101572.31
2023-04-07T09:27:38.726Z,101575.16
2023-04-07T09:30:14.707Z,101572.50
2023-04-07T09:32:39.798Z,101570.16
2023-04-07T09:35:03.524Z,101573.25
2023-04-07T09:37:27.220Z,101574.84
2023-04-07T09:39:54.744Z,101568.34
2023-04-07T09:42:18.613Z,101580.09
2023-04-07T09:44:42.493Z,101577.66
2023-04-07T09:47:06.402Z,101583.25
2023-04-07T09:49:30.102Z,101585.59
2023-04-07T09:51:59.858Z,101582.16
2023-04-07T09:54:36.046Z,101578.94
2023-04-07T09:57:03.204Z,101581.41
2023-04-07T09:59:28.136Z,101578.75
2023-04-07T10:01:53.846Z,101573.81
2023-04-07T10:04:19.443Z,101583.50
2023-04-07T10:06:44.219Z,101578.56
2023-04-07T10:09:10.334Z,101580.94
2023-04-07T10:11:34.482Z,101578.84
2023-04-07T10:13:59.924Z,101573.75
2023-04-07T10:16:25.098Z,101582.16
2023-04-07T10:18:51.348Z,101576.59
2023-04-07T10:21:18.254Z,101583.81
2023-04-07T10:23:58.130Z,101577.66
2023-04-07T10:26:25.083Z,101581.94
2023-04-07T10:28:52.173Z,101583.03
2023-04-07T10:31:18.506Z,101590.13
2023-04-07T10:33:52.038Z,101593.38
2023-04-07T10:36:16.145Z,101588.44
2023-04-07T10:38:39.824Z,101592.50
2023-04-07T10:41:36.993Z,101590.53
2023-04-07T10:44:00.776Z,101587.13
2023-04-07T10:46:26.014Z,101585.81
2023-04-07T10:49:10.617Z,101585.19
2023-04-07T10:51:34.328Z,101592.94
2023-04-07T10:54:23.290Z,101591.06
2023-04-07T10:57:15.939Z,101589.94
2023-04-07T10:59:43.466Z,101573.94
2023-04-07T11:02:35.210Z,101577.34
2023-04-07T11:04:59.115Z,101580.78
2023-04-07T11:08:02.822Z,101575.13
2023-04-07T11:10:27.354Z,101576.34
2023-04-07T11:13:08.413Z,101576.38
2023-04-07T11:15:32.170Z,101574.56
2023-04-07T11:18:19.486Z,101580.88
2023-04-07T11:20:46.405Z,101583.44
2023-04-07T11:23:10.244Z,101574.06
2023-04-07T11:25:35.596Z,101583.91
2023-04-07T11:27:59.429Z,101578.72
2023-04-07T11:30:23.192Z,101571.59
2023-04-07T11:32:51.492Z,101583.78
2023-04-07T11:35:16.821Z,101582.06
2023-04-07T11:37:40.697Z,101577.50
2023-04-07T11:40:04.481Z,101572.31
2023-04-07T11:42:35.060Z,101574.22
2023-04-07T11:44:58.950Z,101572.25
2023-04-07T11:47:22.745Z,101567.41
2023-04-07T11:49:48.302Z,101575.69
2023-04-07T11:52:13.707Z,101572.41
2023-04-07T11:54:46.937Z,101573.28
2023-04-07T11:57:12.907Z,101571.53
2023-04-07T11:59:37.209Z,101566.53
2023-04-07T12:02:01.101Z,101574.44
2023-04-07T12:04:25.131Z,101574.91
2023-04-07T12:06:50.630Z,101568.53
2023-04-07T12:09:30.763Z,101569.47
2023-04-07T12:11:54.925Z,101579.69
2023-04-07T12:14:18.998Z,101571.53
2023-04-07T12:16:42.764Z,101581.28
2023-04-07T12:19:06.492Z,101571.78
2023-04-07T12:21:30.176Z,101572.41
2023-04-07T12:23:53.792Z,101570.25
2023-04-07T12:26:21.138Z,101567.13
2023-04-07T12:28:46.128Z,101570.25
2023-04-07T12:31:10.277Z,101572.50
2023-04-07T12:33:34.297Z,101573.19
2023-04-07T12:35:59.014Z,101568.00
2023-04-07T12:38:22.950Z,101572.84
2023-04-07T12:40:46.741Z,101564.06
2023-04-07T12:43:11.997Z,101567.31
2023-04-07T12:45:36.007Z,101568.69
2023-04-07T12:47:59.987Z,101566.38
2023-04-07T12:50:25.202Z,101568.84
2023-04-07T12:52:48.893Z,101579.16
2023-04-07T12:55:14.317Z,101572.84
2023-04-07T12:57:38.332Z,101572.25
2023-04-07T13:00:03.475Z,101569.38
2023-04-07T13:02:27.259Z,101568.97
2023-04-07T13:04:51.117Z,101565.69
2023-04-07T13:07:15.115Z,101559.91
2023-04-07T13:09:39.125Z,101569.13
2023-04-07T13:12:03.018Z,101568.97
2023-04-07T13:14:26.798Z,101558.44
2023-04-07T13:16:52.047Z,101563.69
2023-04-07T13:19:16.287Z,101558.09
2023-04-07T13:24:07.123Z,101564.16
2023-04-07T13:26:31.309Z,101557.72
2023-04-07T13:28:55.204Z,101555.16
2023-04-07T13:31:19.032Z,101553.88
2023-04-07T13:33:44.502Z,101564.56
2023-04-07T13:36:08.439Z,101561.72
2023-04-07T13:38:32.923Z,101559.75
2023-04-07T13:40:56.707Z,101565.00
2023-04-07T13:43:20.483Z,101560.94
2023-04-07T13:45:44.293Z,101566.81
2023-04-07T13:48:08.260Z,101559.66
2023-04-07T13:50:33.364Z,101556.81
2023-04-07T13:52:57.226Z,101551.53
2023-04-07T13:55:21.654Z,101552.31
2023-04-07T13:57:45.397Z,101556.00
2023-04-07T14:00:10.585Z,101545.53
2023-04-07T14:02:34.345Z,101545.34
2023-04-07T14:04:58.279Z,101537.03
2023-04-07T14:07:24.029Z,101538.25
2023-04-07T14:09:48.324Z,101540.25
2023-04-07T14:12:12.030Z,101542.25
2023-04-07T14:14:37.648Z,101537.31
2023-04-07T14:17:02.073Z,101536.59
2023-04-07T14:19:26.057Z,101542.31
2023-04-07T14:21:49.755Z,101540.06
2023-04-07T14:24:14.738Z,101531.19
2023-04-07T14:26:38.413Z,101537.69
2023-04-07T14:29:02.306Z,101544.13
2023-04-07T14:31:26.164Z,101549.88
2023-04-07T14:33:51.166Z,101535.50
2023-04-07T14:36:17.458Z,101542.03
2023-04-07T14:38:41.186Z,101541.25
2023-04-07T14:41:09.982Z,101539.47
2023-04-07T14:43:34.035Z,101542.22
2023-04-07T14:45:59.795Z,101544.63
2023-04-07T14:48:23.616Z,101530.31
2023-04-07T14:50:50.130Z,101542.06
2023-04-07T14:53:17.555Z,101540.44
2023-04-07T14:55:43.063Z,101543.16
2023-04-07T14:58:08.322Z,101546.19
2023-04-07T15:00:31.969Z,101548.25
2023-04-07T15:02:56.388Z,101534.44
2023-04-07T15:05:20.907Z,101549.78
2023-04-07T15:07:45.933Z,101540.84
2023-04-07T15:10:10.759Z,101547.47
2023-04-07T15:12:34.396Z,101548.19
2023-04-07T15:14:59.504Z,101546.44
2023-04-07T15:17:30.280Z,101541.03
2023-04-07T15:20:00.351Z,101548.00
2023-04-07T15:22:23.952Z,101542.91
2023-04-07T15:24:47.875Z,101543.06
2023-04-07T15:27:12.040Z,101549.75
2023-04-07T15:29:36.396Z,101547.56
2023-04-07T15:32:01.479Z,101539.88
2023-04-07T15:34:25.220Z,101544.47
2023-04-07T15:36:49.432Z,101549.47
2023-04-07T15:39:13.250Z,101546.00
2023-04-07T15:41:37.017Z,101544.28
2023-04-07T15:44:02.037Z,101538.59
2023-04-07T15:46:25.800Z,101540.75
2023-04-07T15:48:51.903Z,101550.56
2023-04-07T15:51:15.741Z,101534.44
2023-04-07T15:53:39.453Z,101539.38
2023-04-07T15:56:03.229Z,101537.72
2023-04-07T15:58:26.877Z,101538.41
2023-04-07T16:00:51.028Z,101548.16
2023-04-07T16:03:15.023Z,101547.38
2023-04-07T16:05:44.942Z,101545.59
2023-04-07T16:08:09.090Z,101544.31
2023-04-07T16:10:33.112Z,101541.53
2023-04-07T16:12:56.928Z,101551.50
2023-04-07T16:15:36.507Z,101553.78
2023-04-07T16:18:07.236Z,101551.88
2023-04-07T16:20:30.851Z,101543.25
2023-04-07T16:22:56.014Z,101548.53
2023-04-07T16:25:20.161Z,101552.97
2023-04-07T16:27:45.003Z,101556.88
2023-04-07T16:30:11.032Z,101554.56
2023-04-07T16:32:35.256Z,101556.19
2023-04-07T16:34:58.972Z,101553.63
2023-04-07T16:37:22.818Z,101559.22
2023-04-07T16:39:47.834Z,101556.47
2023-04-07T16:42:11.747Z,101556.22
2023-04-07T16:44:35.469Z,101556.44
2023-04-07T16:46:59.279Z,101558.50
2023-04-07T16:49:23.370Z,101557.16
2023-04-07T16:51:47.197Z,101558.00
2023-04-07T16:54:10.931Z,101557.91
2023-04-07T16:56:36.390Z,101562.41
2023-04-07T16:59:01.448Z,101562.56
2023-04-07T17:01:29.760Z,101557.31
2023-04-07T17:03:53.854Z,101560.78
2023-04-07T17:06:17.793Z,101559.91
2023-04-07T17:08:41.469Z,101562.47
2023-04-07T17:11:08.043Z,101572.16
2023-04-07T17:13:33.081Z,101570.34
2023-04-07T17:15:56.850Z,101568.63
2023-04-07T17:18:20.494Z,101569.06
2023-04-07T17:20:44.233Z,101562.66
2023-04-07T17:23:09.325Z,101576.38
2023-04-07T17:25:33.023Z,101573.19
2023-04-07T17:27:56.674Z,101572.66
2023-04-07T17:30:22.107Z,101574.72
2023-04-07T17:32:45.802Z,101574.66
2023-04-07T17:35:10.404Z,101583.03
2023-04-07T17:37:34.330Z,101583.72
2023-04-07T17:39:58.079Z,101584.22
2023-04-07T17:42:21.672Z,101582.56
2023-04-07T17:44:45.645Z,101595.63
2023-04-07T17:47:10.824Z,101592.03
2023-04-07T17:49:34.554Z,101592.81
2023-04-07T17:51:58.252Z,101598.53
2023-04-07T17:54:22.034Z,101601.53
2023-04-07T17:56:46.139Z,101589.91
2023-04-07T17:59:09.773Z,101597.56
2023-04-07T18:01:33.575Z,101601.72
2023-04-07T18:04:00.280Z,101598.28
2023-04-07T18:06:24.037Z,101602.75
2023-04-07T18:08:48.489Z,101609.72
2023-04-07T18:11:12.111Z,101609.66
2023-04-07T18:13:35.860Z,101608.97
2023-04-07T18:15:59.769Z,101610.38
2023-04-07T18:18:23.534Z,101618.72
2023-04-07T18:20:48.652Z,101613.03
2023-04-07T18:23:12.560Z,101617.34
2023-04-07T18:25:36.581Z,101618.25
2023-04-07T18:28:01.998Z,101615.09
2023-04-07T18:30:25.692Z,101613.97
2023-04-07T18:32:49.612Z,101608.88
2023-04-07T18:35:14.578Z,101620.19
2023-04-07T18:37:40.642Z,101614.75
2023-04-07T18:40:05.748Z,101627.81
2023-04-07T18:42:29.491Z,101627.19
2023-04-07T18:44:53.173Z,101624.53
2023-04-07T18:47:17.378Z,101633.63
2023-04-07T18:49:41.122Z,101636.44
2023-04-07T18:52:05.206Z,101636.06
2023-04-07T18:54:30.516Z,101640.94
2023-04-07T18:56:54.318Z,101641.97
2023-04-07T18:59:18.050Z,101653.94
2023-04-07T19:01:42.656Z,101648.25
2023-04-07T19:04:06.771Z,101654.06
2023-04-07T19:06:31.996Z,101655.72
2023-04-07T19:08:55.821Z,101654.63
2023-04-07T19:11:21.440Z,101660.03
2023-04-07T19:13:45.138Z,101656.19
2023-04-07T19:16:09.006Z,101658.72
2023-04-07T19:18:32.782Z,101658.19
2023-04-07T19:20:57.091Z,101656.97
2023-04-07T19:23:20.797Z,101659.78
2023-04-07T19:25:45.984Z,101662.38
2023-04-07T19:28:11.303Z,101660.66
2023-04-07T19:30:35.374Z,101668.75
2023-04-07T19:32:59.092Z,101667.56
2023-04-07T19:35:23.129Z,101661.28
2023-04-07T19:37:48.112Z,101666.00
2023-04-07T19:40:12.836Z,101661.06
2023-04-07T19:42:38.088Z,101671.69
2023-04-07T19:45:07.326Z,101671.72
2023-04-07T19:47:31.317Z,101665.66
2023-04-07T19:49:55.411Z,101666.53
2023-04-07T19:52:19.170Z,101660.41
2023-04-07T19:54:42.948Z,101664.44
2023-04-07T19:57:06.747Z,101667.00
2023-04-07T19:59:30.481Z,101666.00
2023-04-07T20:01:56.014Z,101660.81
2023-04-07T20:04:19.838Z,101663.50
2023-04-07T20:06:43.525Z,101666.00
2023-04-07T20:09:07.513Z,101668.91
2023-04-07T20:11:31.193Z,101667.56
2023-04-07T20:13:56.214Z,101666.72
2023-04-07T20:16:20.056Z,101665.31
2023-04-07T20:18:45.372Z,101659.31
2023-04-07T20:21:10.008Z,101661.38
2023-04-07T20:23:34.502Z,101656.88
2023-04-07T20:25:58.220Z,101657.31
2023-04-07T20:28:22.215Z,101657.31
2023-04-07T20:30:45.965Z,101654.63
2023-04-07T20:33:09.830Z,101654.25
2023-04-07T20:35:35.199Z,101658.13
2023-04-07T20:38:00.237Z,101660.91
2023-04-07T20:40:23.973Z,101652.50
2023-04-07T20:42:47.784Z,101654.81
2023-04-07T20:45:12.552Z,101661.75
2023-04-07T20:47:37.016Z,101671.34
2023-04-07T20:50:00.739Z,101673.88
2023-04-07T20:52:27.284Z,101678.56
2023-04-07T20:54:51.124Z,101670.41
2023-04-07T20:57:14.952Z,101667.09
2023-04-07T20:59:38.670Z,101665.69
2023-04-07T21:02:02.659Z,101670.56
2023-04-07T21:04:26.731Z,101666.31
2023-04-07T21:06:50.655Z,101671.03
2023-04-07T21:09:15.766Z,101665.50
2023-04-07T21:11:39.693Z,101668.38
2023-04-07T21:14:03.440Z,101669.38
2023-04-07T21:16:27.204Z,101671.88
2023-04-07T21:18:51.055Z,101670.22
2023-04-07T21:21:14.998Z,101676.22
2023-04-07T21:23:38.734Z,101668.91
2023-04-07T21:26:04.779Z,101671.50
2023-04-07T21:28:28.487Z,101670.34
2023-04-07T21:30:53.465Z,101671.19
2023-04-07T21:33:17.227Z,101670.19
2023-04-07T21:35:41.345Z,101670.06
2023-04-07T21:38:05.121Z,101676.78
2023-04-07T21:40:29.103Z,101680.25
2023-04-07T21:42:54.202Z,101676.59
2023-04-07T21:45:18.229Z,101674.63
2023-04-07T21:47:42.108Z,101676.06
2023-04-07T21:50:07.424Z,101683.41
2023-04-07T21:52:31.120Z,101675.56
2023-04-07T21:54:54.906Z,101676.22
2023-04-07T21:57:18.593Z,101677.13
2023-04-07T21:59:43.879Z,101664.00
2023-04-07T22:02:07.693Z,101669.75
2023-04-07T22:04:32.163Z,101667.91
2023-04-07T22:06:56.497Z,101666.78
2023-04-07T22:09:20.282Z,101672.69
2023-04-07T22:11:44.045Z,101664.41
2023-04-07T22:14:07.862Z,101662.78
2023-04-07T22:16:33.058Z,101662.88
2023-04-07T22:18:56.886Z,101667.09
2023-04-07T22:21:21.131Z,101678.94
2023-04-07T22:23:45.291Z,101675.81
2023-04-07T22:26:09.014Z,101673.94
2023-04-07T22:28:33.440Z,101672.28
2023-04-07T22:30:58.154Z,101667.88
2023-04-07T22:33:23.345Z,101671.44
2023-04-07T22:35:47.126Z,101654.50
2023-04-07T22:38:10.953Z,101659.25
2023-04-07T22:40:34.809Z,101664.41
2023-04-07T22:42:58.586Z,101664.50
2023-04-07T22:45:22.301Z,101659.94
2023-04-07T22:47:46.129Z,101661.47
2023-04-07T22:50:12.856Z,101666.47
2023-04-07T22:52:36.725Z,101669.91
2023-04-07T22:55:00.503Z,101658.09
2023-04-07T22:57:24.243Z,101662.94
2023-04-07T22:59:47.963Z,101666.16
2023-04-07T23:02:12.090Z,101669.13
2023-04-07T23:04:35.834Z,101676.50
2023-04-07T23:07:01.338Z,101672.28
2023-04-07T23:09:25.090Z,101681.41
2023-04-07T23:11:48.911Z,101689.38
2023-04-07T23:14:12.594Z,101690.81
2023-04-07T23:16:36.604Z,101690.31
2023-04-07T23:19:01.135Z,101682.41
2023-04-07T23:21:24.860Z,101680.28
2023-04-07T23:23:50.592Z,101688.81
2023-04-07T23:26:14.384Z,101679.44
2023-04-07T23:28:38.276Z,101674.94
2023-04-07T23:31:02.881Z,101673.69
2023-04-07T23:33:26.543Z,101666.78
2023-04-07T23:35:50.335Z,101668.28
2023-04-07T23:38:14.110Z,101666.78
2023-04-07T23:40:39.387Z,101680.75
2023-04-07T23:43:03.085Z,101668.06
2023-04-07T23:45:26.884Z,101660.25
2023-04-07T23:47:50.692Z,101669.03
2023-04-07T23:50:14.762Z,101670.41
2023-04-07T23:52:38.514Z,101670.78
2023-04-07T23:55:02.322Z,101665.81
2023-04-07T23:57:27.512Z,101665.13
2023-04-07T23:59:51.307Z,101669.06
